Time;durP1;ratioP1;P1;durP2;ratioP2;P2;SDS_P1;SDS_P2;PMS_P1;PMS_P2;Temp;Humidity;BMP_temperature;BMP_pressure;BME280_temperature;BME280_humidity;BME280_pressure;Samples;Min_cycle;Max_cycle;Signal;HPM_P1;HPM_P2
2021/12/27 00:00:21;;;;;;;;;8.00;4.67;;;;;11.70;81.35;99490.38;5075293;28;45315;-61
2021/12/27 00:02:49;;;;;;;;;6.00;6.00;;;;;11.68;81.51;99479.00;5053591;28;45443;-60
2021/12/27 00:05:15;;;;;;;;;7.67;6.67;;;;;11.66;81.70;99475.59;5076368;28;45615;-61
2021/12/27 00:07:43;;;;;;;;;4.67;4.67;;;;;11.69;81.72;99482.50;5076090;28;45445;-60
2021/12/27 00:10:10;;;;;;;;;7.33;7.33;;;;;11.66;82.00;99470.28;5076237;28;45899;-60
2021/12/27 00:12:36;;;;;;;;;7.33;6.00;;;;;11.62;81.48;99460.84;5057853;28;45292;-60
2021/12/27 00:15:02;;;;;;;;;7.33;6.33;;;;;11.65;81.69;99463.25;5076409;28;45335;-59
2021/12/27 00:17:28;;;;;;;;;6.00;4.00;;;;;11.67;81.47;99463.97;5057520;28;48575;-60
2021/12/27 00:19:55;;;;;;;;;4.67;4.67;;;;;11.61;81.16;99459.16;5075936;28;45419;-60
2021/12/27 00:22:22;;;;;;;;;3.00;2.67;;;;;11.68;80.65;99463.00;5074739;27;45533;-61
2021/12/27 00:24:47;;;;;;;;;3.33;2.00;;;;;11.63;80.76;99449.22;5076026;28;45260;-60
2021/12/27 00:27:15;;;;;;;;;3.33;3.00;;;;;11.68;80.97;99463.00;5075149;28;45370;-59
2021/12/27 00:29:41;;;;;;;;;3.33;2.00;;;;;11.67;80.56;99456.00;5073534;28;45540;-61
2021/12/27 00:32:06;;;;;;;;;1.33;1.33;;;;;11.72;80.92;99459.16;5076351;28;45359;-60
2021/12/27 00:34:32;;;;;;;;;5.33;2.00;;;;;11.73;80.47;99452.88;5076294;28;45580;-60
2021/12/27 00:36:57;;;;;;;;;1.67;1.67;;;;;11.72;80.62;99443.19;5057648;28;46032;-61
2021/12/27 00:39:22;;;;;;;;;1.33;1.33;;;;;11.72;81.07;99448.50;5075911;28;45404;-60
2021/12/27 00:41:48;;;;;;;;;2.00;2.00;;;;;11.67;81.30;99426.69;5055715;28;45392;-61
2021/12/27 00:44:13;;;;;;;;;4.00;2.00;;;;;11.75;81.22;99442.94;5075918;28;45633;-60
2021/12/27 00:46:39;;;;;;;;;4.67;3.00;;;;;11.73;81.05;99439.53;5075576;28;46224;-60
2021/12/27 00:49:04;;;;;;;;;3.67;2.00;;;;;11.77;80.60;99438.31;5057258;28;45375;-61
2021/12/27 00:51:29;;;;;;;;;3.00;2.00;;;;;11.77;80.71;99441.00;5074893;28;46442;-60
2021/12/27 00:53:55;;;;;;;;;6.00;2.33;;;;;11.77;80.46;99441.00;5075852;28;45421;-62
2021/12/27 00:56:20;;;;;;;;;3.33;2.33;;;;;11.73;80.46;99450.19;5075604;28;45453;-60
2021/12/27 00:58:46;;;;;;;;;2.00;2.00;;;;;11.74;80.45;99435.91;5075669;28;45459;-60
2021/12/27 01:01:11;;;;;;;;;2.00;2.00;;;;;11.77;80.02;99430.34;5075430;28;45402;-61
2021/12/27 01:03:37;;;;;;;;;0.33;0.33;;;;;11.81;80.29;99438.94;5076134;28;45589;-58
2021/12/27 01:06:02;;;;;;;;;2.00;2.00;;;;;11.79;80.08;99432.91;5056836;28;46240;-60
2021/12/27 01:08:28;;;;;;;;;1.33;1.33;;;;;11.80;80.00;99423.94;5075385;28;45565;-60
2021/12/27 01:18:32;;;;;;;;;2.00;2.00;;;;;11.80;79.75;99427.44;5075423;28;45870;-60
2021/12/27 01:20:58;;;;;;;;;1.67;1.67;;;;;11.80;79.61;99424.78;5075443;28;45339;-61
2021/12/27 01:23:24;;;;;;;;;3.00;1.00;;;;;11.81;79.68;99418.50;5075853;28;45346;-60
2021/12/27 01:25:50;;;;;;;;;1.00;1.00;;;;;11.85;79.83;99420.91;5075311;28;45361;-60
2021/12/27 01:28:16;;;;;;;;;1.00;1.00;;;;;11.83;79.80;99413.03;5074873;28;45504;-59
2021/12/27 01:30:47;;;;;;;;;1.33;0.00;;;;;11.88;79.37;99410.88;5075442;28;45232;-60
2021/12/27 01:33:14;;;;;;;;;4.00;1.00;;;;;11.84;79.58;99411.22;5073341;27;45599;-60
2021/12/27 01:35:39;;;;;;;;;1.33;1.00;;;;;11.86;79.32;99407.47;5072678;28;46226;-60
2021/12/27 01:38:04;;;;;;;;;1.67;0.33;;;;;11.84;79.25;99403.22;5075270;28;45429;-61
2021/12/27 01:40:31;;;;;;;;;4.00;2.33;;;;;11.93;79.19;99397.16;5075484;28;45591;-60
2021/12/27 01:43:13;;;;;;;;;1.00;1.00;;;;;11.95;79.21;99400.53;5075470;28;45355;-62
2021/12/27 01:45:40;;;;;;;;;1.00;1.00;;;;;11.94;78.93;99398.84;5072646;28;45500;-62
2021/12/27 01:48:07;;;;;;;;;0.33;0.33;;;;;11.94;78.88;99396.19;5074933;28;45543;-61
2021/12/27 01:50:38;;;;;;;;;3.00;1.33;;;;;11.96;79.00;99392.44;5075174;28;45465;-61
2021/12/27 01:53:04;;;;;;;;;1.00;1.00;;;;;11.96;78.98;99375.59;5049297;28;45490;-61
2021/12/27 01:55:29;;;;;;;;;1.00;1.00;;;;;12.00;78.83;99387.72;5074593;28;45281;-60
2021/12/27 01:57:55;;;;;;;;;2.00;2.00;;;;;12.04;78.99;99392.66;5074687;28;45339;-60
2021/12/27 02:00:21;;;;;;;;;1.00;1.00;;;;;12.02;78.80;99385.78;5074885;28;45335;-60
2021/12/27 02:02:47;;;;;;;;;2.67;2.00;;;;;12.03;78.49;99393.63;5075244;28;45338;-61
2021/12/27 02:05:14;;;;;;;;;3.00;2.00;;;;;12.05;78.58;99399.69;5074770;28;46085;-62
2021/12/27 02:07:40;;;;;;;;;2.00;0.00;;;;;12.05;78.78;99393.50;5072473;28;45361;-61
2021/12/27 02:10:07;;;;;;;;;1.00;1.00;;;;;12.06;78.86;99392.53;5056625;28;45405;-61
2021/12/27 02:12:33;;;;;;;;;1.00;1.00;;;;;12.04;78.55;99395.31;5075008;28;45402;-62
2021/12/27 02:14:59;;;;;;;;;3.00;1.00;;;;;12.07;78.88;99391.56;5054078;28;46516;-60
2021/12/27 02:17:25;;;;;;;;;4.33;1.00;;;;;12.04;78.79;99390.00;5074501;28;45498;-62
2021/12/27 02:19:52;;;;;;;;;3.00;1.00;;;;;12.04;78.84;99391.81;5074692;28;45557;-61
2021/12/27 02:22:18;;;;;;;;;2.00;1.00;;;;;12.00;78.45;99372.56;5068265;28;45584;-63
2021/12/27 02:24:43;;;;;;;;;1.67;1.67;;;;;12.06;78.81;99388.06;5078285;28;45406;-60
2021/12/27 02:27:13;;;;;;;;;2.00;1.00;;;;;12.06;78.97;99393.38;5078082;28;45351;-60
2021/12/27 02:29:39;;;;;;;;;2.33;1.00;;;;;12.03;79.20;99382.13;5072799;28;45454;-62
2021/12/27 02:32:05;;;;;;;;;1.00;1.00;;;;;11.99;79.60;99372.72;5058091;28;45502;-61
2021/12/27 02:34:30;;;;;;;;;0.00;0.00;;;;;12.00;79.80;99369.91;5078454;27;46296;-59
2021/12/27 02:36:56;;;;;;;;;3.00;1.33;;;;;12.02;79.55;99370.63;5077574;28;45907;-60
2021/12/27 02:39:21;;;;;;;;;1.00;1.00;;;;;11.98;79.56;99368.31;5077925;28;45373;-60
2021/12/27 02:41:47;;;;;;;;;1.00;1.00;;;;;11.93;79.67;99355.38;5078141;28;45354;-58
2021/12/27 02:44:12;;;;;;;;;1.33;1.33;;;;;11.95;79.19;99369.41;5058931;28;45427;-62
2021/12/27 02:46:38;;;;;;;;;1.00;1.00;;;;;11.98;79.23;99368.31;5077845;28;45350;-61
2021/12/27 02:49:04;;;;;;;;;1.33;1.33;;;;;11.99;79.08;99365.56;5059503;28;45280;-60
2021/12/27 02:51:30;;;;;;;;;6.33;2.33;;;;;11.98;78.99;99363.00;5059551;28;45447;-61
2021/12/27 02:53:56;;;;;;;;;1.00;1.00;;;;;11.98;79.16;99353.22;5077278;28;45342;-61
2021/12/27 02:56:22;;;;;;;;;2.67;1.33;;;;;12.00;78.91;99350.41;5076095;28;45385;-60
2021/12/27 02:58:48;;;;;;;;;4.00;2.67;;;;;12.02;79.02;99345.81;5078075;28;45310;-59
2021/12/27 03:01:20;;;;;;;;;2.00;2.00;;;;;11.99;78.77;99356.72;5078941;28;45505;-60
2021/12/27 03:03:46;;;;;;;;;5.33;2.00;;;;;11.95;78.55;99341.94;5077552;28;45499;-60
2021/12/27 03:06:12;;;;;;;;;2.00;1.00;;;;;11.96;79.01;99332.97;5077423;28;45429;-60
2021/12/27 03:08:41;;;;;;;;;2.00;2.00;;;;;11.96;78.96;99346.28;5077024;28;45323;-59
2021/12/27 03:11:10;;;;;;;;;2.00;2.00;;;;;11.98;78.55;99345.22;5077969;28;45256;-60
2021/12/27 03:13:39;;;;;;;;;3.00;1.67;;;;;11.93;78.81;99343.88;5073541;28;45717;-60
2021/12/27 03:16:07;;;;;;;;;2.67;1.67;;;;;11.93;78.73;99343.88;5075307;28;45472;-60
2021/12/27 03:18:34;;;;;;;;;6.00;3.00;;;;;11.90;78.15;99339.66;5077174;28;45924;-61
2021/12/27 03:21:00;;;;;;;;;2.67;2.67;;;;;11.87;78.46;99342.56;5077475;28;45428;-61
2021/12/27 03:23:25;;;;;;;;;3.67;2.67;;;;;11.90;78.69;99341.47;5076290;28;46231;-59
2021/12/27 03:25:53;;;;;;;;;2.67;2.67;;;;;11.91;78.50;99343.16;5077287;28;45342;-61
2021/12/27 03:28:19;;;;;;;;;2.00;2.00;;;;;11.95;77.96;99332.13;5077305;28;45291;-59
2021/12/27 03:30:45;;;;;;;;;6.33;3.33;;;;;11.96;78.42;99333.81;5077666;28;45637;-60
2021/12/27 03:33:12;;;;;;;;;6.00;3.67;;;;;11.94;78.38;99329.59;5075556;27;45375;-60
2021/12/27 03:35:40;;;;;;;;;2.33;2.00;;;;;11.95;77.76;99317.94;5076099;28;45351;-60
2021/12/27 03:38:11;;;;;;;;;4.00;1.67;;;;;11.96;77.92;99328.47;5077076;27;45545;-60
2021/12/27 03:40:39;;;;;;;;;3.33;3.33;;;;;11.95;78.27;99323.28;5074536;28;45606;-59
2021/12/27 03:43:04;;;;;;;;;3.33;2.00;;;;;11.96;78.18;99322.31;5076863;28;46319;-60
2021/12/27 03:45:33;;;;;;;;;2.00;2.00;;;;;11.98;77.95;99323.03;5076901;28;45391;-60
2021/12/27 03:48:00;;;;;;;;;6.00;3.00;;;;;11.97;77.84;99313.34;5077431;28;45438;-60
2021/12/27 03:50:26;;;;;;;;;6.00;2.33;;;;;11.92;77.92;99302.22;5077774;28;45304;-60
2021/12/27 03:52:58;;;;;;;;;4.00;2.00;;;;;11.92;77.84;99299.56;5077319;28;45346;-61
2021/12/27 03:55:24;;;;;;;;;5.33;3.67;;;;;11.96;77.85;99306.31;5077151;28;45779;-59
2021/12/27 03:57:54;;;;;;;;;4.00;3.00;;;;;11.93;77.92;99293.25;5064694;28;45376;-59
2021/12/27 04:02:54;;;;;;;;;3.67;3.00;;;;;11.97;77.64;99302.69;5056821;28;45348;-60
2021/12/27 04:05:20;;;;;;;;;3.67;2.00;;;;;11.90;77.64;99294.38;5057515;28;45364;-61
2021/12/27 04:07:48;;;;;;;;;1.00;1.00;;;;;11.90;77.95;99291.69;5057323;28;45409;-61
2021/12/27 04:10:15;;;;;;;;;8.33;3.00;;;;;11.95;77.95;99299.31;5056878;28;45445;-60
2021/12/27 04:12:41;;;;;;;;;1.67;1.67;;;;;11.98;77.68;99293.72;5056562;28;46776;-60
2021/12/27 04:15:08;;;;;;;;;3.33;3.33;;;;;11.95;78.04;99294.81;5056466;28;45163;-60
2021/12/27 04:17:35;;;;;;;;;3.00;3.00;;;;;11.98;77.65;99293.72;5057482;28;45518;-60
2021/12/27 04:20:01;;;;;;;;;7.33;6.00;;;;;11.99;77.81;99290.09;5056732;28;45867;-60
2021/12/27 04:22:26;;;;;;;;;5.33;3.67;;;;;11.94;77.54;99286.97;5056563;28;46216;-60
2021/12/27 04:24:51;;;;;;;;;4.67;4.67;;;;;11.97;77.59;99286.69;5072614;28;45453;-60
2021/12/27 04:27:17;;;;;;;;;6.00;2.00;;;;;11.97;77.70;99281.38;5076654;28;45786;-60
2021/12/27 04:29:44;;;;;;;;;2.67;2.67;;;;;12.00;77.45;99286.47;5076464;28;45444;-58
2021/12/27 04:32:10;;;;;;;;;3.00;3.00;;;;;11.99;77.46;99279.44;5076035;28;45504;-60
2021/12/27 04:34:36;;;;;;;;;5.33;3.67;;;;;12.02;77.83;99273.84;5057755;28;45870;-59
2021/12/27 04:37:02;;;;;;;;;4.67;4.00;;;;;12.02;77.24;99279.19;5076454;28;45316;-59
2021/12/27 04:39:27;;;;;;;;;6.00;3.00;;;;;12.04;76.99;99290.56;5076890;27;45660;-60
2021/12/27 04:41:54;;;;;;;;;4.33;3.33;;;;;12.03;77.44;99297.72;5075679;28;46025;-60
2021/12/27 04:44:20;;;;;;;;;7.33;3.00;;;;;12.00;77.06;99291.78;5075920;28;45459;-60
2021/12/27 04:46:45;;;;;;;;;4.00;4.00;;;;;12.03;77.39;99292.38;5075902;28;45559;-59
2021/12/27 04:49:11;;;;;;;;;6.00;3.00;;;;;12.05;77.54;99289.59;5058176;28;45572;-60
2021/12/27 04:51:36;;;;;;;;;3.00;3.00;;;;;12.03;77.45;99294.19;5076518;28;45542;-60
2021/12/27 04:54:02;;;;;;;;;7.33;3.00;;;;;12.01;77.55;99285.50;5076450;28;45429;-61
2021/12/27 04:56:27;;;;;;;;;6.33;6.00;;;;;12.06;77.78;99301.94;5076697;28;45380;-61
2021/12/27 04:58:53;;;;;;;;;4.00;4.00;;;;;12.05;77.24;99309.09;5073003;28;45988;-60
2021/12/27 05:01:18;;;;;;;;;6.00;3.00;;;;;12.01;77.44;99314.81;5056398;28;45500;-60
2021/12/27 05:03:44;;;;;;;;;5.33;3.67;;;;;11.95;77.50;99305.47;5056140;28;45340;-61
2021/12/27 05:06:12;;;;;;;;;5.33;4.00;;;;;12.00;77.61;99313.13;5056269;28;45409;-61
2021/12/27 05:08:37;;;;;;;;;6.00;4.00;;;;;12.00;77.52;99313.97;5038660;28;45412;-60
2021/12/27 05:11:03;;;;;;;;;9.00;5.33;;;;;12.00;77.46;99313.97;5055775;28;45398;-59
2021/12/27 05:13:31;;;;;;;;;4.67;4.00;;;;;11.97;77.53;99310.69;5055993;28;45309;-61
2021/12/27 05:15:58;;;;;;;;;6.00;3.00;;;;;11.98;77.53;99320.34;5056043;28;45342;-59
2021/12/27 05:18:24;;;;;;;;;4.00;4.00;;;;;12.00;77.56;99324.63;5056234;28;45791;-60
2021/12/27 05:20:49;;;;;;;;;3.67;3.67;;;;;11.93;77.34;99302.09;5038463;28;47173;-60
2021/12/27 05:23:15;;;;;;;;;4.00;4.00;;;;;11.97;77.34;99313.34;5055837;28;45403;-59
2021/12/27 05:25:41;;;;;;;;;7.00;6.67;;;;;11.93;77.67;99302.09;5059172;28;45522;-59
2021/12/27 05:28:06;;;;;;;;;5.67;5.67;;;;;11.97;77.39;99308.00;5076217;28;45664;-59
2021/12/27 05:30:31;;;;;;;;;3.00;3.00;;;;;11.98;77.55;99307.03;5075905;28;45379;-61
2021/12/27 05:32:57;;;;;;;;;4.00;2.00;;;;;11.96;77.28;99312.50;5076053;28;45296;-60
2021/12/27 05:35:22;;;;;;;;;4.00;4.00;;;;;11.96;77.57;99306.31;5076322;28;45329;-61
2021/12/27 05:37:47;;;;;;;;;6.00;6.00;;;;;11.97;77.16;99298.19;5076212;28;45220;-60
2021/12/27 05:40:18;;;;;;;;;3.67;3.67;;;;;11.93;77.52;99290.59;5074814;27;45388;-60
2021/12/27 05:42:45;;;;;;;;;7.00;4.00;;;;;11.92;77.21;99286.25;5096221;27;45359;-59
2021/12/27 05:45:10;;;;;;;;;8.00;4.00;;;;;11.92;77.29;99283.56;5096327;27;45723;-61
2021/12/27 05:47:36;;;;;;;;;4.00;3.00;;;;;11.90;77.50;99273.06;5096300;27;45517;-60
2021/12/27 05:50:04;;;;;;;;;7.33;7.00;;;;;11.87;77.08;99259.16;5096330;27;45419;-59
2021/12/27 05:52:29;;;;;;;;;6.33;6.33;;;;;11.87;77.62;99248.50;5077904;27;45747;-61
2021/12/27 05:54:55;;;;;;;;;6.67;6.67;;;;;11.82;77.40;99244.38;5096484;27;45378;-61
2021/12/27 05:57:20;;;;;;;;;6.67;4.67;;;;;11.81;77.95;99234.69;5099827;27;45345;-61
2021/12/27 05:59:47;;;;;;;;;3.67;3.00;;;;;11.76;78.12;99222.69;5099508;27;46466;-61
2021/12/27 06:02:12;;;;;;;;;7.33;4.67;;;;;11.76;77.57;99222.69;5069519;27;45341;-60
2021/12/27 06:04:37;;;;;;;;;6.00;4.00;;;;;11.75;77.79;99221.00;5058939;28;45461;-61
2021/12/27 06:07:03;;;;;;;;;6.33;6.33;;;;;11.73;78.27;99207.81;5024333;28;45471;-60
2021/12/27 06:09:28;;;;;;;;;4.33;3.67;;;;;11.70;78.03;99191.22;5058546;28;46267;-60
2021/12/27 06:11:54;;;;;;;;;6.00;4.00;;;;;11.61;78.43;99198.19;5059038;28;45328;-60
2021/12/27 06:14:19;;;;;;;;;13.00;5.33;;;;;11.58;78.15;99179.78;5058795;28;45467;-61
2021/12/27 06:16:44;;;;;;;;;7.67;6.67;;;;;11.56;78.43;99163.09;5058901;28;45442;-60
2021/12/27 06:19:10;;;;;;;;;7.00;5.33;;;;;11.55;78.14;99169.38;5058454;28;45426;-59
2021/12/27 06:21:36;;;;;;;;;8.33;8.33;;;;;11.52;78.32;99153.66;5060540;28;45352;-58
2021/12/27 06:24:02;;;;;;;;;11.00;6.00;;;;;11.47;78.60;99142.56;5078577;28;45260;-59
2021/12/27 06:26:28;;;;;;;;;8.00;6.67;;;;;11.45;78.46;99129.34;5078788;28;45291;-59
2021/12/27 06:28:53;;;;;;;;;8.67;6.67;;;;;11.48;78.45;99130.94;5078756;28;45367;-60
2021/12/27 06:31:19;;;;;;;;;4.00;3.00;;;;;11.48;78.81;99125.63;5060480;28;45309;-60
2021/12/27 06:33:45;;;;;;;;;9.00;7.33;;;;;11.45;78.19;99110.72;5078606;28;45351;-60
2021/12/27 06:36:11;;;;;;;;;7.00;4.00;;;;;11.42;78.36;99104.81;5078877;28;45521;-60
2021/12/27 06:38:36;;;;;;;;;8.67;7.00;;;;;11.36;78.62;99090.22;5078418;28;46115;-59
2021/12/27 06:41:02;;;;;;;;;12.00;6.67;;;;;11.34;78.64;99083.34;5078458;28;45337;-60
2021/12/27 06:43:30;;;;;;;;;6.33;6.00;;;;;11.33;78.21;99085.16;5088075;27;45395;-60
2021/12/27 06:45:57;;;;;;;;;8.00;6.00;;;;;11.27;78.38;99080.31;5099635;27;45281;-60
2021/12/27 06:48:22;;;;;;;;;7.33;7.00;;;;;11.23;78.42;99079.75;5098151;27;45408;-60
2021/12/27 06:50:48;;;;;;;;;12.67;7.00;;;;;11.25;78.00;99089.41;5099004;27;45308;-60
2021/12/27 06:53:13;;;;;;;;;8.67;8.67;;;;;11.23;78.29;99095.72;5099109;27;45232;-61
2021/12/27 06:55:39;;;;;;;;;6.33;3.67;;;;;11.25;78.04;99092.06;5099118;27;45373;-61
2021/12/27 06:58:04;;;;;;;;;8.67;7.67;;;;;11.20;78.04;99097.78;5098779;27;46242;-60
2021/12/27 07:00:30;;;;;;;;;8.67;6.00;;;;;11.15;78.25;99094.63;5080549;27;45371;-59
2021/12/27 07:02:55;;;;;;;;;7.33;6.33;;;;;11.12;77.97;99098.41;5092427;27;45331;-59
2021/12/27 07:05:21;;;;;;;;;9.33;7.33;;;;;11.16;78.00;99105.16;5057932;28;45564;-61
2021/12/27 07:07:46;;;;;;;;;7.00;4.33;;;;;11.17;78.18;99090.88;5039276;28;47021;-60
2021/12/27 07:10:14;;;;;;;;;16.00;12.00;;;;;11.17;78.30;99082.91;5057780;28;45424;-60
2021/12/27 07:12:40;;;;;;;;;7.67;5.33;;;;;11.23;78.24;99090.38;5058080;28;45311;-61
2021/12/27 07:15:06;;;;;;;;;6.67;6.00;;;;;11.22;77.52;99088.69;5058092;28;45401;-60
2021/12/27 07:17:32;;;;;;;;;13.00;9.33;;;;;11.17;78.34;99082.91;5039794;28;45322;-59
2021/12/27 07:19:57;;;;;;;;;7.33;4.33;;;;;11.15;78.25;99086.66;5057863;28;45434;-60
2021/12/27 07:22:23;;;;;;;;;8.00;6.00;;;;;11.07;77.90;99076.66;5057611;28;45299;-60
2021/12/27 07:24:48;;;;;;;;;6.00;4.33;;;;;11.07;78.06;99079.31;5058266;28;45550;-60
2021/12/27 07:27:14;;;;;;;;;9.67;5.33;;;;;11.04;78.76;99084.88;5055680;28;45285;-61
2021/12/27 07:29:39;;;;;;;;;8.33;7.67;;;;;11.03;77.99;99077.88;5057622;28;45476;-60
2021/12/27 07:32:05;;;;;;;;;7.00;6.00;;;;;10.98;78.40;99080.06;5076059;28;45417;-61
2021/12/27 07:34:31;;;;;;;;;6.33;4.67;;;;;10.97;78.08;99094.34;5076167;28;45500;-61
2021/12/27 07:36:57;;;;;;;;;8.00;5.33;;;;;10.95;78.31;99098.94;5075548;28;45396;-59
2021/12/27 07:39:25;;;;;;;;;7.67;3.67;;;;;10.90;78.15;99112.59;5075418;28;45531;-60
2021/12/27 07:41:50;;;;;;;;;9.33;7.00;;;;;10.91;78.17;99110.78;5074902;28;45539;-61
2021/12/27 07:44:17;;;;;;;;;6.00;4.33;;;;;10.89;78.37;99102.09;5073495;27;45928;-59
2021/12/27 07:46:45;;;;;;;;;5.33;4.33;;;;;10.88;79.50;99097.75;5096619;27;46189;-64
2021/12/27 07:49:11;;;;;;;;;6.00;3.67;;;;;10.86;79.23;99087.22;5097604;27;45215;-61
2021/12/27 07:51:38;;;;;;;;;6.00;4.33;;;;;10.85;79.17;99090.00;5097736;27;45396;-62
2021/12/27 07:54:04;;;;;;;;;6.67;6.00;;;;;10.77;79.48;99076.47;5098081;27;45366;-60
2021/12/27 07:56:29;;;;;;;;;6.67;4.33;;;;;10.86;78.92;99103.19;5098091;27;46403;-63
2021/12/27 07:58:55;;;;;;;;;6.00;3.33;;;;;10.82;78.93;99096.44;5097824;27;45236;-63
2021/12/27 08:01:21;;;;;;;;;6.67;6.00;;;;;10.80;79.55;99094.84;5098093;27;45418;-62
2021/12/27 08:03:47;;;;;;;;;3.00;3.00;;;;;10.76;79.17;99085.44;5098034;27;45588;-65
2021/12/27 08:06:12;;;;;;;;;6.00;4.00;;;;;10.72;78.27;99081.34;5052323;28;46654;-60
2021/12/27 08:08:37;;;;;;;;;6.00;5.33;;;;;10.71;78.98;99090.28;5038625;28;45288;-61
2021/12/27 08:11:03;;;;;;;;;5.00;5.00;;;;;10.68;79.00;99085.19;5056951;28;45314;-60
2021/12/27 08:13:29;;;;;;;;;4.00;2.67;;;;;10.61;78.19;99085.69;5057283;28;45513;-60
2021/12/27 08:15:54;;;;;;;;;6.00;3.00;;;;;10.61;78.28;99091.00;5055053;28;46397;-61
2021/12/27 08:18:20;;;;;;;;;1.67;1.67;;;;;10.60;79.02;99084.00;5055978;28;45345;-61
2021/12/27 08:20:45;;;;;;;;;6.33;4.67;;;;;10.59;79.33;99082.31;5056778;28;45379;-61
2021/12/27 08:23:11;;;;;;;;;8.67;4.33;;;;;10.60;78.21;99073.38;5056685;28;45546;-60
2021/12/27 08:25:36;;;;;;;;;6.33;2.33;;;;;10.59;79.00;99071.69;5057260;28;46088;-60
2021/12/27 08:28:03;;;;;;;;;6.00;6.00;;;;;10.55;78.11;99072.06;5038605;28;45565;-60
2021/12/27 08:30:28;;;;;;;;;3.00;3.00;;;;;10.56;78.79;99063.13;5057054;28;45405;-63
2021/12/27 08:32:56;;;;;;;;;3.00;3.00;;;;;10.59;79.42;99063.72;5057195;28;45465;-61
2021/12/27 08:35:22;;;;;;;;;5.00;5.00;;;;;10.56;79.01;99058.66;5038762;28;45496;-60
2021/12/27 08:37:47;;;;;;;;;6.33;4.33;;;;;10.60;78.98;99076.03;5056788;28;45399;-60
2021/12/27 08:40:14;;;;;;;;;6.00;5.00;;;;;10.61;79.21;99072.41;5056267;28;45367;-59
2021/12/27 08:42:40;;;;;;;;;5.33;3.67;;;;;10.63;78.43;99065.16;5038492;28;45202;-60
2021/12/27 08:45:06;;;;;;;;;6.00;3.67;;;;;10.66;77.83;99071.19;5056063;28;46046;-60
2021/12/27 08:47:32;;;;;;;;;10.67;5.67;;;;;10.62;78.83;99063.47;5076823;27;45436;-62
2021/12/27 08:50:00;;;;;;;;;7.00;5.67;;;;;10.56;78.55;99058.66;5096816;27;45305;-61
2021/12/27 08:52:26;;;;;;;;;3.00;0.00;;;;;10.58;78.57;99051.38;5097099;27;45567;-62
2021/12/27 08:54:51;;;;;;;;;6.00;3.67;;;;;10.54;78.85;99051.75;5078465;27;45383;-61
2021/12/27 08:57:17;;;;;;;;;5.00;5.00;;;;;10.56;78.66;99058.66;5096938;27;45242;-63
2021/12/27 08:59:42;;;;;;;;;2.00;2.00;;;;;10.56;78.01;99041.84;5097084;27;45364;-61
2021/12/27 09:02:08;;;;;;;;;3.33;3.33;;;;;10.63;78.17;99043.88;5078659;27;45652;-60
2021/12/27 09:04:33;;;;;;;;;2.00;2.00;;;;;10.70;78.61;99043.41;5076384;28;46128;-61
2021/12/27 09:06:59;;;;;;;;;6.33;5.67;;;;;10.64;78.55;99034.94;5076283;28;45353;-60
2021/12/27 09:09:25;;;;;;;;;6.33;2.67;;;;;10.61;77.94;99035.19;5058133;28;45426;-61
2021/12/27 09:11:51;;;;;;;;;5.67;4.33;;;;;10.64;77.97;99040.25;5076474;28;45430;-61
2021/12/27 09:14:16;;;;;;;;;2.00;2.00;;;;;10.71;77.66;99055.72;5075466;28;45495;-60
2021/12/27 09:16:43;;;;;;;;;7.67;3.00;;;;;10.72;77.78;99054.75;5056967;28;45458;-61
2021/12/27 09:19:10;;;;;;;;;5.67;4.00;;;;;10.74;78.01;99055.47;5075856;28;45362;-61
2021/12/27 09:21:36;;;;;;;;;2.67;2.67;;;;;10.78;78.45;99059.56;5065104;28;45984;-59
2021/12/27 09:24:02;;;;;;;;;6.67;3.00;;;;;10.80;77.63;99046.97;5055746;28;45932;-59
2021/12/27 09:26:27;;;;;;;;;4.33;4.33;;;;;10.82;78.08;99040.59;5047831;28;45436;-59
2021/12/27 09:28:52;;;;;;;;;3.00;3.00;;;;;10.81;78.08;99035.41;5054702;28;45422;-59
2021/12/27 09:31:18;;;;;;;;;8.00;4.33;;;;;10.82;78.22;99039.75;5058818;28;45537;-59
2021/12/27 09:33:43;;;;;;;;;5.00;4.00;;;;;10.75;78.31;99027.91;5078757;28;45608;-61
2021/12/27 09:36:09;;;;;;;;;7.33;6.00;;;;;10.83;77.82;99033.44;5078868;28;45291;-62
2021/12/27 09:38:34;;;;;;;;;3.00;3.00;;;;;10.82;78.04;99029.94;5079365;28;45354;-60
2021/12/27 09:41:00;;;;;;;;;6.00;6.00;;;;;10.89;77.83;99032.94;5078370;28;45545;-59
2021/12/27 09:43:27;;;;;;;;;4.33;3.00;;;;;10.87;77.72;99025.09;5060611;28;45540;-62
2021/12/27 09:45:52;;;;;;;;;4.67;4.67;;;;;10.89;77.49;99023.13;5079234;28;45462;-60
2021/12/27 09:48:18;;;;;;;;;2.00;2.00;;;;;10.91;77.47;99020.34;5078977;28;45342;-61
2021/12/27 09:50:52;;;;;;;;;3.67;3.33;;;;;10.90;78.38;99016.84;5079614;28;45421;-59
2021/12/27 09:53:17;;;;;;;;;9.67;6.00;;;;;10.95;77.79;99007.66;5079224;28;45436;-59
2021/12/27 09:55:43;;;;;;;;;4.33;4.33;;;;;10.92;77.63;99011.41;5079226;28;45260;-61
2021/12/27 09:58:08;;;;;;;;;4.33;4.33;;;;;10.93;78.08;99007.75;5077788;28;45413;-60
2021/12/27 10:00:36;;;;;;;;;2.33;2.33;;;;;10.89;77.65;99012.50;5079741;28;45465;-60
2021/12/27 10:03:02;;;;;;;;;4.00;2.67;;;;;10.87;77.83;99010.94;5077891;27;46249;-58
2021/12/27 10:05:30;;;;;;;;;4.67;3.67;;;;;10.88;78.28;99016.13;5078955;28;45319;-60
2021/12/27 10:07:56;;;;;;;;;4.33;3.00;;;;;10.87;77.22;99030.41;5079248;28;45379;-60
2021/12/27 10:10:22;;;;;;;;;2.33;2.33;;;;;10.86;77.96;99022.56;5079654;28;45587;-59
2021/12/27 10:12:48;;;;;;;;;3.00;3.00;;;;;10.84;77.83;99025.34;5079025;28;46407;-59
2021/12/27 10:15:20;;;;;;;;;4.67;4.67;;;;;10.81;78.11;99027.41;5078878;28;45429;-60
2021/12/27 10:17:47;;;;;;;;;6.00;3.00;;;;;10.73;78.33;99037.81;5060774;28;45311;-59
2021/12/27 10:20:20;;;;;;;;;5.00;3.00;;;;;10.69;79.03;99026.59;5060615;28;45518;-60
2021/12/27 10:22:50;;;;;;;;;7.00;3.00;;;;;10.69;79.02;99021.28;5076814;28;45434;-60
2021/12/27 10:25:25;;;;;;;;;4.33;4.33;;;;;10.64;79.10;99026.97;5078264;28;45416;-59
2021/12/27 10:27:53;;;;;;;;;2.00;2.00;;;;;10.60;79.81;99012.22;5078889;28;45361;-59
2021/12/27 10:30:24;;;;;;;;;6.00;4.00;;;;;10.59;79.51;99018.53;5079051;28;45512;-61
2021/12/27 10:33:10;;;;;;;;;3.33;3.00;;;;;10.61;80.69;99011.25;5078418;28;46468;-63
2021/12/27 10:35:46;;;;;;;;;6.67;6.00;;;;;10.62;79.82;99020.06;5060307;28;45365;-61
2021/12/27 10:38:41;;;;;;;;;3.00;3.00;;;;;10.64;80.45;99013.66;5059982;28;45247;-60
2021/12/27 10:41:09;;;;;;;;;6.00;6.00;;;;;10.63;80.38;99033.25;5078458;28;45532;-61
2021/12/27 10:43:38;;;;;;;;;3.00;3.00;;;;;10.59;79.70;99007.88;5071007;28;45802;-61
2021/12/27 10:46:15;;;;;;;;;5.00;5.00;;;;;10.62;79.69;99001.47;5039731;28;45673;-60
2021/12/27 10:48:43;;;;;;;;;6.67;5.00;;;;;10.62;79.65;99004.13;5057774;28;45378;-60
2021/12/27 10:51:09;;;;;;;;;5.33;4.33;;;;;10.62;79.92;99009.44;5058529;28;45551;-60
2021/12/27 10:53:53;;;;;;;;;3.00;3.00;;;;;10.58;79.62;99016.00;5057743;28;46081;-61
2021/12/27 10:56:21;;;;;;;;;2.00;2.00;;;;;10.56;79.65;99015.28;5039575;28;45355;-60
2021/12/27 10:58:52;;;;;;;;;3.00;3.00;;;;;10.56;79.72;99001.97;5039993;28;45388;-61
2021/12/27 11:01:19;;;;;;;;;5.00;5.00;;;;;10.62;79.12;99015.59;5058078;28;45578;-60
2021/12/27 11:03:51;;;;;;;;;5.00;3.00;;;;;10.62;79.76;99020.91;5059642;27;46019;-60
2021/12/27 11:06:26;;;;;;;;;4.67;4.67;;;;;10.62;79.66;99010.28;5098178;27;45378;-61
2021/12/27 11:08:52;;;;;;;;;3.00;3.00;;;;;10.70;79.57;99019.47;5098356;27;45421;-63
2021/12/27 11:11:20;;;;;;;;;3.00;3.00;;;;;10.69;80.07;99028.41;5096934;27;45527;-64
2021/12/27 11:13:49;;;;;;;;;6.33;5.00;;;;;10.71;79.49;99024.66;5098087;27;46355;-61
2021/12/27 11:16:15;;;;;;;;;5.67;5.67;;;;;10.75;80.19;99036.72;5098042;27;45362;-61
2021/12/27 11:18:40;;;;;;;;;7.00;7.00;;;;;10.72;79.12;99036.13;5082517;27;45387;-62
2021/12/27 11:21:18;;;;;;;;;4.33;4.33;;;;;10.71;80.00;99034.44;5076117;28;45640;-60
2021/12/27 11:23:48;;;;;;;;;6.00;6.00;;;;;10.73;79.73;99032.50;5076583;28;45423;-62
2021/12/27 11:26:21;;;;;;;;;5.67;5.67;;;;;10.76;80.04;99026.94;5076828;28;45441;-59
2021/12/27 11:28:46;;;;;;;;;3.00;3.00;;;;;10.78;79.79;99030.31;5076348;28;45188;-62
2021/12/27 11:31:24;;;;;;;;;5.33;5.33;;;;;10.81;79.83;99027.41;5077926;28;45588;-61
2021/12/27 11:33:56;;;;;;;;;7.33;7.00;;;;;10.81;78.81;99032.75;5077559;28;46111;-60
2021/12/27 11:36:28;;;;;;;;;6.33;5.00;;;;;10.83;79.86;99022.81;5077241;28;45459;-61
2021/12/27 11:38:54;;;;;;;;;9.00;5.67;;;;;10.86;79.35;99018.06;5077309;28;45162;-60
2021/12/27 11:41:28;;;;;;;;;7.67;5.67;;;;;10.94;79.00;99017.47;5077627;28;45318;-61